Time;durP1;ratioP1;P1;durP2;ratioP2;P2;SDS_P1;SDS_P2;PMS_P1;PMS_P2;Temp;Humidity;BMP_temperature;BMP_pressure;BME280_temperature;BME280_humidity;BME280_pressure;Samples;Min_cycle;Max_cycle;Signal;HPM_P1;HPM_P2
2022/01/16 00:00:48;;;;;;;;;;;2.40;99.90;;;;;;4951599;28;20088;-70
2022/01/16 00:06:00;;;;;;;55.47;21.45;;;2.40;99.90;;;;;;4945077;28;20050;-70
2022/01/16 00:08:26;;;;;;;51.07;20.50;;;2.40;99.90;;;;;;4950917;28;20043;-70
2022/01/16 00:10:52;;;;;;;60.60;22.83;;;2.40;99.90;;;;;;4950473;28;20046;-70
2022/01/16 00:13:17;;;;;;;56.73;23.63;;;2.40;99.90;;;;;;4957216;28;20113;-70
2022/01/16 00:15:44;;;;;;;43.23;19.20;;;2.40;99.90;;;;;;4931329;28;20100;-70
2022/01/16 00:18:21;;;;;;;45.03;18.80;;;2.40;99.90;;;;;;4951436;28;20098;-70
2022/01/16 00:20:48;;;;;;;58.63;19.85;;;2.40;99.90;;;;;;4948524;28;20055;-70
2022/01/16 00:23:21;;;;;;;52.22;21.40;;;2.40;99.90;;;;;;4950213;28;20520;-70
2022/01/16 00:25:47;;;;;;;56.72;20.92;;;2.40;99.90;;;;;;4953224;28;20050;-70
2022/01/16 00:28:13;;;;;;;56.83;19.90;;;2.40;99.90;;;;;;4955275;28;20035;-74
2022/01/16 00:30:38;;;;;;;49.30;19.80;;;2.40;99.90;;;;;;4970116;28;20043;-70
2022/01/16 00:33:04;;;;;;;60.73;22.47;;;2.40;99.90;;;;;;4951007;28;20049;-70
2022/01/16 00:35:30;;;;;;;59.57;21.93;;;2.40;99.90;;;;;;4955076;28;20073;-70
2022/01/16 00:37:58;;;;;;;58.22;20.77;;;2.40;99.90;;;;;;4949852;28;20050;-70
2022/01/16 00:40:24;;;;;;;54.10;22.15;;;2.50;99.90;;;;;;4975948;28;20761;-70
2022/01/16 00:42:49;;;;;;;56.83;21.60;;;2.40;99.90;;;;;;4952571;28;20123;-70
2022/01/16 00:45:15;;;;;;;56.70;19.77;;;2.50;99.90;;;;;;4950502;28;20421;-71
2022/01/16 00:47:41;;;;;;;62.30;21.60;;;2.50;99.90;;;;;;4956349;28;20035;-70
2022/01/16 00:50:07;;;;;;;60.57;20.40;;;2.50;99.90;;;;;;4950295;28;20042;-69
2022/01/16 00:52:32;;;;;;;60.45;25.23;;;2.50;99.90;;;;;;4961239;28;20046;-70
2022/01/16 00:55:03;;;;;;;59.77;22.47;;;2.40;99.90;;;;;;4960447;28;20488;-70
2022/01/16 00:57:29;;;;;;;63.45;22.15;;;2.50;99.90;;;;;;4956938;28;20078;-70
2022/01/16 00:59:55;;;;;;;51.35;20.95;;;2.40;99.90;;;;;;4951918;28;20062;-70
2022/01/16 01:02:21;;;;;;;57.10;21.93;;;2.40;99.90;;;;;;4953880;28;20047;-70
2022/01/16 01:04:47;;;;;;;53.40;21.30;;;2.50;99.90;;;;;;4952382;28;20053;-70
2022/01/16 01:07:13;;;;;;;67.47;23.63;;;2.50;99.90;;;;;;4940388;28;20134;-70
2022/01/16 01:09:39;;;;;;;57.55;20.15;;;2.50;99.90;;;;;;4955435;28;20041;-71
2022/01/16 01:12:06;;;;;;;57.20;21.30;;;2.50;99.90;;;;;;4955693;28;20055;-70
2022/01/16 01:15:03;;;;;;;56.03;21.63;;;2.50;99.90;;;;;;4946960;28;20058;-70
2022/01/16 01:17:27;;;;;;;62.85;23.65;;;2.50;99.90;;;;;;4959249;28;20061;-70
2022/01/16 01:19:53;;;;;;;60.13;20.83;;;2.60;99.90;;;;;;4955009;28;20381;-70
2022/01/16 01:22:19;;;;;;;56.67;20.93;;;2.60;99.90;;;;;;4957320;28;20921;-70
2022/01/16 01:24:44;;;;;;;61.87;23.23;;;2.50;99.90;;;;;;4957707;28;20043;-70
2022/01/16 01:29:36;;;;;;;62.37;22.53;;;2.60;99.90;;;;;;4958476;28;20078;-70
2022/01/16 01:32:03;;;;;;;61.90;21.95;;;2.60;99.90;;;;;;4952285;28;20054;-70
2022/01/16 01:34:28;;;;;;;66.03;22.42;;;2.60;99.90;;;;;;4953746;28;20046;-70
2022/01/16 01:36:54;;;;;;;68.63;22.80;;;2.60;99.90;;;;;;4957236;28;20455;-70
2022/01/16 01:39:22;;;;;;;60.03;22.90;;;2.60;99.90;;;;;;4952133;28;20380;-70
2022/01/16 01:41:50;;;;;;;65.88;22.13;;;2.60;99.90;;;;;;4952731;28;20130;-70
2022/01/16 01:52:32;;;;;;;70.82;23.40;;;2.60;99.90;;;;;;4954688;28;20050;-70
2022/01/16 01:54:58;;;;;;;53.90;20.87;;;2.60;99.90;;;;;;4939462;28;20039;-70
2022/01/16 01:57:23;;;;;;;67.97;21.87;;;2.60;99.90;;;;;;4948248;28;20061;-70
2022/01/16 01:59:49;;;;;;;64.00;22.33;;;2.60;99.90;;;;;;4959577;28;20049;-70
2022/01/16 02:02:15;;;;;;;61.77;23.17;;;2.60;99.90;;;;;;4954908;28;20129;-70
2022/01/16 02:04:40;;;;;;;56.47;20.27;;;2.60;99.90;;;;;;4950405;28;20050;-70
2022/01/16 02:07:06;;;;;;;63.30;22.17;;;2.60;99.90;;;;;;4958269;28;20066;-70
2022/01/16 02:09:32;;;;;;;58.10;21.13;;;2.60;99.90;;;;;;4955245;28;20708;-70
2022/01/16 02:11:58;;;;;;;65.50;22.80;;;2.70;99.90;;;;;;4956363;28;20086;-70
2022/01/16 02:28:23;;;;;;;62.78;20.75;;;2.70;99.90;;;;;;4959849;28;20460;-70
2022/01/16 02:36:09;;;;;;;72.93;23.40;;;2.70;99.90;;;;;;4959501;28;20558;-71
2022/01/16 02:38:35;;;;;;;80.10;23.67;;;2.60;99.90;;;;;;4954628;28;20149;-71
2022/01/16 02:41:03;;;;;;;67.70;21.17;;;2.60;99.90;;;;;;4954665;28;20067;-71
2022/01/16 02:43:35;;;;;;;65.10;21.48;;;2.60;99.90;;;;;;4948100;28;20046;-72
2022/01/16 02:46:37;;;;;;;64.72;22.25;;;2.60;99.90;;;;;;4949693;28;20073;-70
2022/01/16 02:48:55;;;;;;;64.72;21.63;;;2.60;99.90;;;;;;4951821;28;20440;-70
2022/01/16 02:51:24;;;;;;;63.67;21.60;;;2.70;99.90;;;;;;4947485;28;20227;-71
2022/01/16 02:53:50;;;;;;;76.57;23.23;;;2.70;99.90;;;;;;4957578;28;20034;-71
2022/01/16 02:56:17;;;;;;;76.53;22.42;;;2.70;99.90;;;;;;4952170;28;20074;-71
2022/01/16 02:58:43;;;;;;;72.55;20.98;;;2.70;99.90;;;;;;4957710;28;20054;-71
2022/01/16 03:01:10;;;;;;;57.45;21.50;;;2.70;99.90;;;;;;4955361;28;20045;-71
2022/01/16 03:03:35;;;;;;;72.72;22.65;;;2.70;99.90;;;;;;4956194;28;20074;-70
2022/01/16 03:06:01;;;;;;;65.60;22.03;;;2.70;99.90;;;;;;4953733;28;20081;-71
2022/01/16 03:08:29;;;;;;;67.60;21.97;;;2.70;99.90;;;;;;4957464;28;20461;-71
2022/01/16 03:11:18;;;;;;;68.20;22.20;;;2.70;99.90;;;;;;4952312;28;20047;-71
2022/01/16 03:13:49;;;;;;;63.10;20.83;;;2.70;99.90;;;;;;4956382;28;20054;-71
2022/01/16 03:16:21;;;;;;;75.38;22.83;;;2.70;99.90;;;;;;4954651;28;20066;-71
2022/01/16 03:24:17;;;;;;;73.47;21.75;;;2.70;99.90;;;;;;4950870;28;20062;-70
2022/01/16 03:26:43;;;;;;;67.67;22.57;;;2.70;99.90;;;;;;4955147;28;20039;-71
2022/01/16 03:29:09;;;;;;;77.60;23.10;;;2.80;99.90;;;;;;4958415;28;20153;-70
2022/01/16 03:31:35;;;;;;;74.33;22.57;;;2.80;99.90;;;;;;4952185;28;20047;-70
2022/01/16 03:34:00;;;;;;;78.50;22.23;;;2.80;99.90;;;;;;4955021;28;20034;-71
2022/01/16 03:36:26;;;;;;;69.43;21.80;;;2.80;99.90;;;;;;4957859;28;20066;-70
2022/01/16 03:38:52;;;;;;;68.63;20.80;;;2.80;99.90;;;;;;4973402;28;20035;-71
2022/01/16 03:41:17;;;;;;;91.27;25.00;;;2.80;99.90;;;;;;4956504;28;20070;-71
2022/01/16 03:43:43;;;;;;;81.30;24.57;;;2.80;99.90;;;;;;4967726;28;20109;-71
2022/01/16 03:46:08;;;;;;;81.93;23.47;;;2.80;99.90;;;;;;4961938;28;20041;-71
2022/01/16 03:48:34;;;;;;;71.97;23.23;;;2.80;99.90;;;;;;4963434;28;20058;-71
2022/01/16 03:51:00;;;;;;;86.07;22.00;;;2.80;99.90;;;;;;4960917;28;20480;-70
2022/01/16 03:53:25;;;;;;;89.67;24.80;;;2.80;99.90;;;;;;4964566;28;20035;-71
2022/01/16 03:55:51;;;;;;;73.30;22.87;;;2.90;99.90;;;;;;4963371;28;20054;-71
2022/01/16 03:58:16;;;;;;;73.93;23.30;;;2.90;99.90;;;;;;4958092;28;20096;-71
2022/01/16 04:00:44;;;;;;;75.57;23.90;;;2.90;99.90;;;;;;4959625;28;20038;-71
2022/01/16 04:03:10;;;;;;;71.13;23.77;;;2.90;99.90;;;;;;4956226;28;20053;-71
2022/01/16 04:05:36;;;;;;;85.05;24.52;;;3.00;99.90;;;;;;4966847;28;20529;-70
2022/01/16 04:08:02;;;;;;;82.77;24.13;;;3.00;99.90;;;;;;4961830;28;20046;-70
2022/01/16 04:10:28;;;;;;;84.18;24.38;;;3.00;99.90;;;;;;4962732;28;20073;-70
2022/01/16 04:12:54;;;;;;;88.65;24.83;;;3.10;99.90;;;;;;4960096;28;20055;-71
2022/01/16 04:17:45;;;;;;;88.17;24.03;;;3.10;99.90;;;;;;4961529;28;20190;-71
2022/01/16 04:20:16;;;;;;;85.18;25.30;;;3.10;99.90;;;;;;4952511;28;20038;-70
2022/01/16 04:22:45;;;;;;;89.85;25.90;;;3.20;99.90;;;;;;4965021;28;20496;-70
2022/01/16 04:25:11;;;;;;;85.43;26.48;;;3.20;99.90;;;;;;4965009;28;20393;-70
2022/01/16 04:27:37;;;;;;;93.70;26.23;;;3.20;99.90;;;;;;4965521;28;20573;-70
2022/01/16 04:30:04;;;;;;;92.05;26.58;;;3.20;99.90;;;;;;4964619;28;20829;-71
2022/01/16 04:32:30;;;;;;;88.43;26.23;;;3.30;99.90;;;;;;4963062;28;20101;-72
2022/01/16 04:34:56;;;;;;;86.00;26.20;;;3.20;99.90;;;;;;4962652;28;20042;-71
2022/01/16 04:37:21;;;;;;;92.13;27.03;;;3.30;99.90;;;;;;4967305;28;20086;-71
2022/01/16 04:39:52;;;;;;;93.53;28.47;;;3.30;99.90;;;;;;4954931;28;20137;-70
2022/01/16 04:45:04;;;;;;;103.65;28.02;;;3.30;99.90;;;;;;4951322;28;20583;-70
2022/01/16 04:47:30;;;;;;;89.05;26.92;;;3.30;99.90;;;;;;4959277;28;20039;-70
2022/01/16 04:49:56;;;;;;;102.30;27.25;;;3.30;99.90;;;;;;4968309;28;20111;-70
2022/01/16 04:52:24;;;;;;;96.63;27.67;;;3.40;99.90;;;;;;4958551;28;20043;-70
2022/01/16 04:54:50;;;;;;;101.13;27.88;;;3.40;99.90;;;;;;4962701;28;20074;-70
2022/01/16 04:57:16;;;;;;;92.53;25.37;;;3.40;99.90;;;;;;4952489;28;20460;-70
2022/01/16 04:59:42;;;;;;;93.65;26.95;;;3.50;99.90;;;;;;4969281;28;20108;-70
2022/01/16 05:02:08;;;;;;;98.47;28.33;;;3.40;99.90;;;;;;4953244;28;20035;-70
2022/01/16 05:04:33;;;;;;;96.90;26.03;;;3.40;99.90;;;;;;4979979;28;20038;-70
2022/01/16 05:06:59;;;;;;;102.40;29.30;;;3.50;99.90;;;;;;4956142;28;20031;-70
2022/01/16 05:09:24;;;;;;;103.40;27.87;;;3.50;99.90;;;;;;4954784;28;20438;-70
2022/01/16 05:11:55;;;;;;;105.37;27.87;;;3.50;99.90;;;;;;4954741;28;20415;-70
2022/01/16 05:17:05;;;;;;;101.22;26.67;;;3.50;99.90;;;;;;4961394;28;20118;-70
2022/01/16 05:19:31;;;;;;;111.43;30.20;;;3.50;99.90;;;;;;4954751;28;20126;-70
2022/01/16 05:21:56;;;;;;;116.40;28.97;;;3.50;99.90;;;;;;4962125;28;20157;-70
2022/01/16 05:24:24;;;;;;;101.80;30.10;;;3.60;99.90;;;;;;4960802;28;20035;-70
2022/01/16 05:26:50;;;;;;;96.03;27.27;;;3.60;99.90;;;;;;4956608;28;20038;-70
2022/01/16 05:29:16;;;;;;;109.67;29.90;;;3.60;99.90;;;;;;4952611;28;20372;-70
2022/01/16 05:31:44;;;;;;;115.77;30.80;;;3.60;99.90;;;;;;4959086;28;20047;-70
2022/01/16 05:34:15;;;;;;;105.20;29.63;;;3.60;99.90;;;;;;4957052;28;20492;-71
2022/01/16 05:36:41;;;;;;;111.00;28.30;;;3.60;99.90;;;;;;4956153;28;20197;-70
2022/01/16 05:39:07;;;;;;;114.03;30.00;;;3.60;99.90;;;;;;4951014;28;20074;-70
2022/01/16 05:41:32;;;;;;;112.23;29.90;;;3.60;99.90;;;;;;4963062;28;20520;-70
2022/01/16 05:43:58;;;;;;;100.30;26.33;;;3.60;99.90;;;;;;4958856;28;20039;-70
2022/01/16 05:46:26;;;;;;;118.10;31.10;;;3.60;99.90;;;;;;4954278;28;20039;-70
2022/01/16 05:48:52;;;;;;;111.13;29.08;;;3.70;99.90;;;;;;4954896;28;20047;-70
2022/01/16 05:51:17;;;;;;;108.33;30.03;;;3.70;99.90;;;;;;4950647;28;20077;-70
2022/01/16 05:53:46;;;;;;;121.97;29.77;;;3.70;99.90;;;;;;4957887;28;20047;-70
2022/01/16 05:56:15;;;;;;;111.28;30.23;;;3.70;99.90;;;;;;4956300;28;20050;-70
2022/01/16 05:58:41;;;;;;;115.63;31.20;;;3.70;99.90;;;;;;4956746;28;20074;-70
2022/01/16 06:01:07;;;;;;;;;;;3.80;99.90;;;;;;4954578;28;20465;-70
2022/01/16 06:03:33;;;;;;;100.70;28.98;;;3.80;99.90;;;;;;4956183;28;19925;-70
2022/01/16 06:05:59;;;;;;;100.57;29.20;;;3.90;99.90;;;;;;4961693;28;20050;-70
2022/01/16 06:08:24;;;;;;;108.27;28.40;;;3.90;99.90;;;;;;4954959;28;20422;-70
2022/01/16 06:10:50;;;;;;;106.07;30.50;;;3.90;99.90;;;;;;4950959;28;20235;-70
2022/01/16 06:13:16;;;;;;;99.47;29.17;;;3.90;99.90;;;;;;4956834;28;20055;-70
2022/01/16 06:15:41;;;;;;;111.27;32.63;;;4.00;99.90;;;;;;4958200;28;20187;-70
2022/01/16 06:18:08;;;;;;;108.57;29.73;;;4.00;99.90;;;;;;4956159;28;20086;-70
2022/01/16 06:20:33;;;;;;;108.53;30.50;;;4.00;99.90;;;;;;4956276;28;20446;-70
2022/01/16 06:23:00;;;;;;;97.03;30.67;;;4.10;99.90;;;;;;4935868;28;20040;-70
2022/01/16 06:25:26;;;;;;;96.97;28.70;;;4.10;99.90;;;;;;4955036;28;20038;-70
2022/01/16 06:27:52;;;;;;;93.82;29.52;;;4.10;99.90;;;;;;4958518;28;20036;-70
2022/01/16 06:30:18;;;;;;;103.55;30.70;;;4.20;99.90;;;;;;4955644;28;20071;-70
2022/01/16 06:32:44;;;;;;;91.30;28.73;;;4.20;99.90;;;;;;4955930;28;20459;-70
2022/01/16 06:35:11;;;;;;;100.50;32.00;;;4.20;99.90;;;;;;4958679;28;20326;-70
2022/01/16 06:37:37;;;;;;;108.47;31.75;;;4.20;99.90;;;;;;4954808;28;20078;-70
2022/01/16 06:40:04;;;;;;;94.47;30.10;;;4.30;99.90;;;;;;4949759;28;20071;-70
2022/01/16 06:42:29;;;;;;;97.63;28.48;;;4.30;99.90;;;;;;4956816;28;20081;-71
2022/01/16 06:44:55;;;;;;;90.73;29.63;;;4.30;99.90;;;;;;4953006;28;20496;-70
2022/01/16 06:47:21;;;;;;;104.53;31.93;;;4.40;99.90;;;;;;4963473;28;20088;-70
2022/01/16 06:49:46;;;;;;;89.73;30.50;;;4.40;99.90;;;;;;4955758;28;20419;-71
2022/01/16 06:52:12;;;;;;;99.03;30.43;;;4.40;99.90;;;;;;4958235;28;20054;-70
2022/01/16 06:54:38;;;;;;;95.87;30.83;;;4.50;99.90;;;;;;4943595;28;20291;-70
2022/01/16 06:57:04;;;;;;;81.07;27.13;;;4.40;99.90;;;;;;4954679;28;20043;-70
2022/01/16 06:59:32;;;;;;;69.55;27.02;;;4.50;99.90;;;;;;4954148;28;20030;-71
2022/01/16 07:01:58;;;;;;;87.57;27.73;;;4.60;99.90;;;;;;4948397;28;20523;-71
2022/01/16 07:04:23;;;;;;;76.00;26.25;;;4.60;99.90;;;;;;4935836;28;20035;-71
2022/01/16 07:06:49;;;;;;;82.40;27.93;;;4.60;99.90;;;;;;4954144;28;20054;-70
2022/01/16 07:09:17;;;;;;;77.43;29.30;;;4.70;99.90;;;;;;4949845;28;20487;-70
2022/01/16 07:11:42;;;;;;;74.95;26.65;;;4.70;99.90;;;;;;4946637;28;20093;-71
2022/01/16 07:14:08;;;;;;;77.50;26.93;;;4.80;99.90;;;;;;4948232;28;20496;-70
2022/01/16 07:16:33;;;;;;;66.80;26.30;;;4.80;99.90;;;;;;4952698;28;20282;-70
2022/01/16 07:18:59;;;;;;;78.70;27.57;;;4.80;99.90;;;;;;4950648;28;20544;-71
2022/01/16 07:21:24;;;;;;;76.33;25.47;;;4.90;99.90;;;;;;4958757;28;20054;-70
2022/01/16 07:23:50;;;;;;;74.83;27.70;;;4.90;99.90;;;;;;4952590;28;20039;-71
2022/01/16 07:26:17;;;;;;;73.83;27.63;;;4.90;99.90;;;;;;4952850;28;20031;-71
2022/01/16 07:28:43;;;;;;;72.05;26.95;;;4.90;99.90;;;;;;4951767;28;20460;-71
2022/01/16 07:31:09;;;;;;;71.72;27.20;;;5.00;99.90;;;;;;4955765;28;20251;-71
2022/01/16 07:33:35;;;;;;;68.40;26.03;;;5.00;99.90;;;;;;4958458;28;20062;-70
2022/01/16 07:36:02;;;;;;;71.17;25.53;;;5.00;99.90;;;;;;4950859;28;20485;-71
2022/01/16 07:38:27;;;;;;;62.83;25.08;;;5.00;99.90;;;;;;4949913;28;20408;-70
2022/01/16 07:40:53;;;;;;;64.23;23.60;;;5.00;99.90;;;;;;4954802;28;20064;-71
2022/01/16 07:43:18;;;;;;;58.87;25.80;;;5.00;99.90;;;;;;4945961;28;20484;-71
2022/01/16 07:45:44;;;;;;;58.30;23.83;;;5.00;99.90;;;;;;4960237;28;20492;-71
2022/01/16 07:48:12;;;;;;;61.87;24.80;;;5.00;99.90;;;;;;4956867;28;20038;-71
2022/01/16 07:50:39;;;;;;;57.10;24.55;;;5.00;99.90;;;;;;4956992;28;20047;-71
2022/01/16 07:53:05;;;;;;;;;;;5.10;99.90;;;;;;4952949;28;20106;-70
2022/01/16 07:55:31;;;;;;;55.63;23.20;;;5.10;99.90;;;;;;4957903;28;20298;-70
2022/01/16 07:57:57;;;;;;;66.53;23.53;;;5.10;99.90;;;;;;4955607;28;20043;-70
2022/01/16 08:00:24;;;;;;;51.90;21.95;;;5.10;99.90;;;;;;4954189;28;20806;-71
2022/01/16 08:02:50;;;;;;;55.33;22.80;;;5.10;99.90;;;;;;4954700;28;20054;-71
2022/01/16 08:05:17;;;;;;;50.97;22.35;;;5.10;99.90;;;;;;4958778;28;20070;-71
2022/01/16 08:07:43;;;;;;;63.45;23.30;;;5.10;99.90;;;;;;4952336;28;20042;-71
2022/01/16 08:10:09;;;;;;;57.83;23.70;;;5.10;99.90;;;;;;4958835;28;20054;-71
2022/01/16 08:12:35;;;;;;;53.30;23.10;;;5.10;99.90;;;;;;4954926;28;20286;-71
2022/01/16 08:15:01;;;;;;;52.00;23.07;;;5.10;99.90;;;;;;4958698;28;20443;-70
2022/01/16 08:17:26;;;;;;;45.03;21.85;;;5.10;99.90;;;;;;4954891;28;20071;-70
2022/01/16 08:19:52;;;;;;;47.03;21.37;;;5.20;99.90;;;;;;4954844;28;20043;-71
2022/01/16 08:22:17;;;;;;;49.87;22.23;;;5.20;99.90;;;;;;4959894;28;20043;-70
2022/01/16 08:24:43;;;;;;;48.83;22.10;;;5.20;99.90;;;;;;4956770;28;20035;-70
2022/01/16 08:27:08;;;;;;;40.90;19.43;;;5.20;99.90;;;;;;4961914;28;20054;-70
2022/01/16 08:29:34;;;;;;;42.57;19.03;;;5.20;99.90;;;;;;4954327;28;20122;-70
2022/01/16 08:32:03;;;;;;;43.77;19.10;;;5.30;99.90;;;;;;4970856;23;20046;-81
2022/01/16 08:34:31;;;;;;;44.55;19.23;;;5.40;99.90;;;;;;4965602;28;20174;-82
2022/01/16 08:37:20;;;;;;;45.80;18.77;;;5.40;99.90;;;;;;4968615;28;20085;-83
2022/01/16 08:39:48;;;;;;;37.60;17.80;;;5.40;99.90;;;;;;4968178;28;20058;-82
2022/01/16 08:42:15;;;;;;;37.03;17.08;;;5.50;99.90;;;;;;4976725;23;20141;-70
2022/01/16 08:44:42;;;;;;;35.30;16.90;;;5.50;99.90;;;;;;4959491;28;20061;-70
2022/01/16 08:47:08;;;;;;;43.70;18.48;;;5.50;99.90;;;;;;4960125;28;20071;-71
2022/01/16 08:49:35;;;;;;;37.53;17.27;;;5.60;99.90;;;;;;4946636;28;20059;-71
2022/01/16 08:52:02;;;;;;;39.13;16.52;;;5.60;99.90;;;;;;4947315;28;20055;-69
2022/01/16 08:54:27;;;;;;;33.38;15.48;;;5.60;99.90;;;;;;4944544;28;20035;-70
2022/01/16 08:56:53;;;;;;;32.07;16.17;;;5.70;99.90;;;;;;4937947;28;20047;-71
2022/01/16 08:59:18;;;;;;;38.13;17.03;;;5.70;99.90;;;;;;4948173;28;20887;-71
2022/01/16 09:01:44;;;;;;;34.37;17.67;;;5.70;99.90;;;;;;4938926;28;20143;-69
2022/01/16 09:04:10;;;;;;;47.23;15.83;;;5.80;99.90;;;;;;4954963;28;20078;-71
2022/01/16 09:06:38;;;;;;;30.63;15.98;;;5.80;99.90;;;;;;4940575;28;20043;-71
2022/01/16 09:09:04;;;;;;;29.30;15.60;;;5.80;99.90;;;;;;4944449;28;20086;-70
2022/01/16 09:11:30;;;;;;;41.63;16.30;;;5.90;99.90;;;;;;4941593;28;20051;-70
2022/01/16 09:13:55;;;;;;;33.63;16.13;;;5.90;99.90;;;;;;4944794;28;20051;-70
2022/01/16 09:16:21;;;;;;;37.00;15.23;;;6.00;99.90;;;;;;4946924;28;20039;-70
2022/01/16 09:18:48;;;;;;;31.52;14.30;;;6.00;99.90;;;;;;4948583;28;20134;-72
2022/01/16 09:21:18;;;;;;;;;;;6.10;99.90;;;;;;4947068;28;20054;-70
2022/01/16 09:23:45;;;;;;;31.05;14.88;;;6.10;99.90;;;;;;4953311;28;19930;-71
2022/01/16 09:26:12;;;;;;;33.75;15.63;;;6.10;99.90;;;;;;4946362;28;20074;-71
2022/01/16 09:28:38;;;;;;;;;;;6.10;99.90;;;;;;4947765;28;20118;-70
2022/01/16 09:31:05;;;;;;;29.02;13.13;;;6.10;99.90;;;;;;4946742;28;19962;-72
2022/01/16 09:33:30;;;;;;;32.90;16.08;;;6.20;99.90;;;;;;4945737;28;20051;-73
2022/01/16 09:35:56;;;;;;;27.07;14.33;;;6.20;99.90;;;;;;4945524;28;20043;-72
2022/01/16 09:38:22;;;;;;;34.33;14.30;;;6.20;99.90;;;;;;4949632;28;20070;-70
2022/01/16 09:40:49;;;;;;;27.35;14.75;;;6.30;99.90;;;;;;4937810;28;20044;-74
2022/01/16 09:43:16;;;;;;;30.83;14.23;;;6.30;99.90;;;;;;4932397;28;20055;-74
2022/01/16 09:45:41;;;;;;;32.65;14.57;;;6.30;99.90;;;;;;4946144;28;20046;-71
2022/01/16 09:48:09;;;;;;;33.63;15.63;;;6.30;99.90;;;;;;4939081;28;20035;-70
2022/01/16 09:50:35;;;;;;;32.78;13.13;;;6.40;99.90;;;;;;4948704;28;20130;-70
2022/01/16 09:53:02;;;;;;;32.00;13.87;;;6.40;99.90;;;;;;4953655;28;20448;-70
2022/01/16 09:55:28;;;;;;;30.35;13.63;;;6.40;99.90;;;;;;4943362;28;21358;-71
2022/01/16 09:57:57;;;;;;;30.17;12.70;;;6.40;99.90;;;;;;4951183;28;20126;-70
2022/01/16 10:00:26;;;;;;;25.60;13.88;;;6.40;99.90;;;;;;4946848;28;20062;-70
2022/01/16 10:02:53;;;;;;;27.00;12.95;;;6.40;99.90;;;;;;4946033;28;20042;-70
2022/01/16 10:05:37;;;;;;;29.85;13.13;;;6.40;99.90;;;;;;4943960;28;20395;-71
2022/01/16 10:08:24;;;;;;;22.20;12.23;;;6.40;99.90;;;;;;4943791;28;20050;-71
2022/01/16 10:10:50;;;;;;;27.50;12.57;;;6.40;99.90;;;;;;4941728;28;20086;-71
2022/01/16 10:13:33;;;;;;;27.08;11.50;;;6.50;99.90;;;;;;4941931;28;20032;-70
2022/01/16 10:15:59;;;;;;;21.75;11.68;;;6.50;99.90;;;;;;4944744;28;20035;-70
2022/01/16 10:18:40;;;;;;;30.83;11.13;;;6.50;99.90;;;;;;4943267;28;20035;-70
2022/01/16 10:21:07;;;;;;;26.98;11.27;;;6.50;99.90;;;;;;4947516;28;20042;-71
2022/01/16 10:23:40;;;;;;;27.60;11.73;;;6.50;99.90;;;;;;4945319;28;20043;-70
2022/01/16 10:26:16;;;;;;;25.60;11.07;;;6.50;99.90;;;;;;4937740;28;20486;-70
2022/01/16 10:28:42;;;;;;;31.35;10.48;;;6.60;99.90;;;;;;4944275;28;20043;-71
2022/01/16 10:31:22;;;;;;;23.25;10.77;;;6.60;99.90;;;;;;4939752;28;20043;-70
2022/01/16 10:33:48;;;;;;;21.05;10.18;;;6.60;99.90;;;;;;4943471;28;20431;-71
2022/01/16 10:36:31;;;;;;;23.52;10.18;;;6.60;99.90;;;;;;4945007;28;20035;-74
2022/01/16 10:39:11;;;;;;;26.42;9.93;;;6.60;99.90;;;;;;4940925;28;20043;-71
2022/01/16 10:41:37;;;;;;;22.42;9.98;;;6.60;99.90;;;;;;4943117;28;20163;-70
2022/01/16 10:44:03;;;;;;;21.27;9.30;;;6.70;99.90;;;;;;4940069;28;20047;-70
2022/01/16 10:46:29;;;;;;;35.92;9.32;;;6.70;99.90;;;;;;4941336;28;20535;-70
2022/01/16 10:49:18;;;;;;;21.40;8.98;;;6.70;99.90;;;;;;4943711;28;20043;-71
2022/01/16 10:52:09;;;;;;;23.15;7.85;;;6.70;99.90;;;;;;4947191;28;20047;-70
2022/01/16 10:54:37;;;;;;;21.95;7.93;;;6.70;99.90;;;;;;4943303;28;20540;-77
2022/01/16 10:57:35;;;;;;;18.58;7.60;;;6.70;99.90;;;;;;4927436;28;20047;-78
2022/01/16 11:00:17;;;;;;;18.00;7.18;;;6.70;99.90;;;;;;4953416;28;20067;-71
2022/01/16 11:02:45;;;;;;;18.55;6.30;;;6.80;99.90;;;;;;4940525;28;20074;-71
2022/01/16 11:05:13;;;;;;;17.88;7.18;;;6.80;99.90;;;;;;4935397;28;20039;-70
2022/01/16 11:07:39;;;;;;;18.17;7.60;;;6.80;99.90;;;;;;4934617;28;20047;-71
2022/01/16 11:10:26;;;;;;;19.83;6.22;;;6.80;99.90;;;;;;4931675;28;20074;-71
2022/01/16 11:12:55;;;;;;;22.60;6.45;;;6.80;99.90;;;;;;4936958;28;20049;-71
2022/01/16 11:15:21;;;;;;;14.95;6.32;;;6.90;99.90;;;;;;4939485;28;20071;-71
2022/01/16 11:17:46;;;;;;;19.33;6.85;;;6.90;99.90;;;;;;4940742;28;20090;-70
2022/01/16 11:20:14;;;;;;;22.30;7.63;;;6.90;99.90;;;;;;4944950;28;20047;-71
2022/01/16 11:22:57;;;;;;;13.15;6.57;;;6.90;99.90;;;;;;4942036;28;20111;-71
2022/01/16 11:25:33;;;;;;;16.92;6.38;;;6.90;99.90;;;;;;4937203;28;20070;-70
2022/01/16 11:28:02;;;;;;;19.35;6.68;;;6.90;99.90;;;;;;4938450;28;20115;-70
2022/01/16 11:30:31;;;;;;;17.00;5.80;;;7.00;99.90;;;;;;4942477;28;20129;-71
2022/01/16 11:32:57;;;;;;;12.18;6.53;;;7.00;99.90;;;;;;4939015;28;20114;-71
2022/01/16 11:35:25;;;;;;;13.93;6.03;;;7.00;99.90;;;;;;4939330;28;20563;-70
2022/01/16 11:37:51;;;;;;;23.60;6.95;;;7.00;99.90;;;;;;4911896;28;20046;-71
2022/01/16 11:40:27;;;;;;;17.67;6.32;;;7.00;99.90;;;;;;4936048;28;20424;-71
2022/01/16 11:43:10;;;;;;;20.05;5.90;;;7.00;99.90;;;;;;4934812;28;20054;-70
2022/01/16 11:45:47;;;;;;;15.68;5.15;;;7.00;99.90;;;;;;4943628;28;20509;-71
2022/01/16 11:48:16;;;;;;;19.00;6.03;;;7.00;99.90;;;;;;4938723;28;20036;-70
2022/01/16 11:50:42;;;;;;;14.10;6.18;;;7.10;99.90;;;;;;4947480;28;20059;-70
2022/01/16 11:53:07;;;;;;;17.63;6.33;;;7.10;99.90;;;;;;4931958;28;20113;-70
2022/01/16 11:55:34;;;;;;;18.87;7.23;;;7.10;99.90;;;;;;4933007;28;20050;-70
2022/01/16 11:58:01;;;;;;;13.48;5.68;;;7.10;99.90;;;;;;4936955;28;20600;-71
2022/01/16 12:00:43;;;;;;;14.90;5.97;;;7.10;99.90;;;;;;4927577;28;20133;-70
2022/01/16 12:03:37;;;;;;;14.90;6.50;;;7.20;99.90;;;;;;4941616;28;20502;-71
2022/01/16 12:06:32;;;;;;;21.20;6.85;;;7.20;99.90;;;;;;4949336;28;20047;-70
2022/01/16 12:09:00;;;;;;;13.45;5.72;;;7.20;99.90;;;;;;4937944;28;20050;-69
2022/01/16 12:11:37;;;;;;;14.25;6.43;;;7.20;99.90;;;;;;4949161;28;20147;-71
2022/01/16 12:14:03;;;;;;;18.75;6.80;;;7.20;99.90;;;;;;4938062;28;20113;-71
2022/01/16 12:16:42;;;;;;;17.00;6.68;;;7.20;99.90;;;;;;4940165;28;20036;-69
2022/01/16 12:19:36;;;;;;;12.60;6.30;;;7.30;99.90;;;;;;4960200;28;20063;-70
2022/01/16 12:22:03;;;;;;;13.95;6.07;;;7.30;99.90;;;;;;4919728;28;20047;-71
2022/01/16 12:24:33;;;;;;;12.90;6.38;;;7.20;99.90;;;;;;4950030;28;20491;-71
2022/01/16 12:27:21;;;;;;;16.77;6.28;;;7.30;99.90;;;;;;4943547;28;20492;-70
2022/01/16 12:30:08;;;;;;;13.15;5.97;;;7.30;99.90;;;;;;4938735;28;20058;-70
2022/01/16 12:33:08;;;;;;;13.15;6.28;;;7.20;99.90;;;;;;4937362;28;20054;-70
2022/01/16 12:35:48;;;;;;;16.48;6.35;;;7.20;99.90;;;;;;4946251;28;20043;-70
2022/01/16 12:38:25;;;;;;;18.42;7.10;;;7.30;99.90;;;;;;4944775;28;20667;-70
2022/01/16 12:41:02;;;;;;;18.77;6.72;;;7.20;99.90;;;;;;4956848;28;20054;-71
2022/01/16 12:43:31;;;;;;;15.55;7.00;;;7.20;99.90;;;;;;4944374;28;20043;-70
2022/01/16 12:46:03;;;;;;;18.90;6.78;;;7.30;99.90;;;;;;4943705;28;20126;-71
2022/01/16 12:48:30;;;;;;;21.05;6.20;;;7.20;99.90;;;;;;4939035;28;20040;-70
2022/01/16 12:51:00;;;;;;;14.52;6.25;;;7.20;99.90;;;;;;4942913;28;20043;-71
2022/01/16 12:53:49;;;;;;;18.95;5.93;;;7.20;99.90;;;;;;4944178;28;20527;-70
2022/01/16 12:56:36;;;;;;;16.88;6.20;;;7.20;99.90;;;;;;4940792;28;20043;-70
2022/01/16 12:59:05;;;;;;;17.05;6.07;;;7.20;99.90;;;;;;4942713;28;20138;-71
2022/01/16 13:01:32;;;;;;;10.35;5.95;;;7.30;99.90;;;;;;4944449;28;20090;-70
2022/01/16 13:03:57;;;;;;;13.52;5.15;;;7.30;99.90;;;;;;4943863;28;20051;-71
2022/01/16 13:06:28;;;;;;;12.97;6.20;;;7.20;99.90;;;;;;4937022;28;20254;-70
2022/01/16 13:09:10;;;;;;;17.75;6.43;;;7.20;99.90;;;;;;4940941;28;20183;-71
2022/01/16 13:11:39;;;;;;;15.88;5.50;;;7.30;99.90;;;;;;4944417;28;20042;-70
2022/01/16 13:14:07;;;;;;;14.57;6.15;;;7.30;99.90;;;;;;4918197;28;20057;-71
2022/01/16 13:16:34;;;;;;;17.80;5.88;;;7.30;99.90;;;;;;4944410;28;20047;-71
2022/01/16 13:19:13;;;;;;;15.52;5.85;;;7.30;99.90;;;;;;4941866;28;20102;-71
2022/01/16 13:22:12;;;;;;;14.02;5.93;;;7.30;99.90;;;;;;4943911;28;20299;-71
2022/01/16 13:24:55;;;;;;;20.08;5.80;;;7.30;99.90;;;;;;4947576;28;20043;-71
2022/01/16 13:27:29;;;;;;;11.82;5.55;;;7.30;99.90;;;;;;4941393;28;20375;-71
2022/01/16 13:30:23;;;;;;;13.63;5.50;;;7.30;99.90;;;;;;4945574;28;20082;-69
2022/01/16 13:32:50;;;;;;;21.23;6.38;;;7.30;99.90;;;;;;4943487;28;20071;-69
2022/01/16 13:35:28;;;;;;;20.00;5.63;;;7.30;99.90;;;;;;4944842;28;20500;-71